• Join FlightAware (Why Join?)
  • Login
  • US Flag 
10:22PM EDT


 

Airport Tracker/Info


-or-


 

Live Flight TrackerFlight Track Log ✈ PDT4373 ✈ 21-Oct-2013 ✈ KPHL - KBGM

Flight Track Log - Related Links

Times and Time Zones

All times are in EDT time to prevent confusion due to time zone crossing. See the PDT4373 flight status page for this flight to view local times or setup timezone preferences in your user account.

Time Position Orientation Groundspeed Altitude Reporting Facility
EDT Latitude Longitude Course Direction KTS MPH feet Rate Location/Type
09:48AM 39.9000 -75.2333 295° West 125 144 600  Level Philadelphia TRACON
09:49AM 39.9333 -75.2500 339° North 150 173 1,800 1,200 Climbing Philadelphia TRACON
09:50AM 39.9667 -75.2833 323° Northwest 169 194 3,000 1,200 Climbing Philadelphia TRACON
09:51AM 40.0000 -75.3333 311° West 172 198 4,300 1,260 Climbing Philadelphia TRACON
09:52AM 40.1236 -75.3178 311° West  Level Estimated
09:52AM 40.0000 -75.3833 270° West 171 197 5,600  Level Philadelphia TRACON
09:53AM 40.1865 -75.3372 311° West  Level Estimated
09:53AM 39.9833 -75.4500 252° West 170 196 6,900  Level Philadelphia TRACON
09:54AM 40.2141 -75.4136 295° West  Level FlightAware Approximate
09:54AM 39.9861 -75.4794 277° West 183 211 7,700  Level New York Center
09:55AM 40.0378 -75.4911 350° North 183 211 9,000 600 Climbing New York Center
09:56AM 40.0911 -75.5111 344° North 195 224 9,000  Level New York Center
09:57AM 40.1572 -75.5319 346° North 223 257 9,000  Level New York Center
09:58AM 40.2228 -75.5553 345° North 229 264 9,000  Level New York Center
09:59AM 40.2581 -75.6150 308° West 221 254 9,100 420 Climbing New York Center
10:00AM 40.2972 -75.6722 312° West 221 254 9,900 900 Climbing New York Center
10:01AM 40.3408 -75.7269 316° Northwest 198 228 11,000 960 Climbing New York Center
10:02AM 40.3897 -75.7550 336° Northwest 188 216 11,900 480 Climbing New York Center
10:03AM 40.4383 -75.7858 334° Northwest 188 216 12,000  Climbing New York Center
10:04AM 40.4933 -75.8169 337° Northwest 218 251 12,000  Level New York Center
10:06AM 40.6261 -75.8789 341° North 241 277 12,000  Level New York Center
10:07AM 40.6869 -75.9189 334° Northwest 246 283 12,000  Level New York Center
10:08AM 40.7500 -75.9511 339° North 246 283 12,000  Level New York Center
10:09AM 40.8153 -75.9833 340° North 246 283 12,000  Level New York Center
10:10AM 40.8761 -76.0211 335° Northwest 246 283 12,000  Level New York Center
10:11AM 40.9331 -76.0556 335° Northwest 246 283 12,000  Level New York Center
10:12AM 41.0025 -76.0886 340° North 246 283 12,000  Level New York Center
10:13AM 41.0594 -76.1150 341° North 246 283 12,100  Climbing New York Center
10:14AM 41.1203 -76.1528 335° Northwest 246 283 12,100  Level New York Center
10:15AM 41.1917 -76.1861 341° North 246 283 12,100  Level New York Center
10:16AM 41.2572 -76.2081 346° North 246 283 12,100  Level New York Center
10:17AM 41.3286 -76.1997 North 240 276 12,100  Level New York Center
10:18AM 41.3914 -76.1939 North 247 284 12,100  Level New York Center
10:19AM 41.4622 -76.1914 North 253 291 12,100  Level New York Center
10:20AM 41.5397 -76.1808 North 253 291 12,100 -540 Level New York Center
10:21AM 41.6131 -76.1758 North 258 297 11,100 -960 Descending New York Center
10:22AM 41.6900 -76.1764 360° North 264 304 10,200 -960 Descending New York Center
10:23AM 41.7592 -76.1681 North 272 313 9,200 -1,020 Descending New York Center
10:24AM 41.8319 -76.1656 North 272 313 8,200 -1,200 Descending New York Center
10:25AM 41.9100 -76.1469 10° North 267 307 6,800 -1,320 Descending New York Center
10:26AM 41.9783 -76.1078 23° Northeast 262 302 5,600 -1,200 Descending New York Center
10:27AM 42.0481 -76.0856 13° North 262 302 4,500 -1,200 Descending New York Center
10:28AM 42.1156 -76.0658 12° North 251 289 3,300 -660 Descending New York Center
10:29AM 42.1747 -76.0481 13° North 231 266 3,200 -180 Descending New York Center
10:30AM 42.2181 -76.0517 356° North 192 221 3,000 -420 Descending New York Center
10:31AM 42.2447 -76.0147 46° Northeast 124 143 2,400 -480 Descending New York Center
10:32AM 42.2397 -75.9861 103° East 83 96 2,100 -300 Descending New York Center